Bandar-E Anzali, Iran
Current Conditions -  °F | °C
As of 6:30 AM on Tuesday 21 Oct 2014 (Local Time) from OIGG Reporting Station
Overcast Overcast  
Wind Chill: 54°   Ceiling: 1500
Heat Index: 54°   Visibility: 6mi
Dew Point: 50°   Wind: 0mph
Humidity: 88%   Direction: NA
Pressure: 30.03"   Gusts: NA
Location:  37.47°N, 49.45°E
Report Text: OIGG 210330Z 00000KT 9999 FEW010CB BKN015 OVC07012/10 Q1017 RERA
Loading
Personal Weather Stations






























Interactive Weather Map
Tropical Storm Tracking
New forecast layout! Learn more

10-Day Weather Forecast

Advertisements
Track Severe Weather on mobile